Terminal Aerodrome Forecast
Issued by NWS Corpus Christi, TX

Home | Current Version | Previous Version | Text Only | Print | Product List | Glossary On
Versions: 1 2 3 4 5 6 7 8 9 10 11 12 13 14
864
FTUS44 KCRP 180528
TAFCRP
TAF
KCRP 180528Z 1806/1906 VRB03KT P6SM SKC
      TEMPO 1810/1813 5SM BR
     FM181600 09008KT P6SM SKC
     FM182000 12011KT P6SM FEW035 SCT250
     FM190300 11006KT P6SM SCT020 BKN250=

USA.gov is the U.S. government's official web portal to all federal, state and local government web resources and services.